createdAt,value
2022-09-09T00:00:17.991Z,2.25
2022-09-09T00:02:55.596Z,2.05
2022-09-09T00:05:33.724Z,2.40
2022-09-09T00:08:06.445Z,2.75
2022-09-09T00:10:40.497Z,2.53
2022-09-09T00:13:18.223Z,2.38
2022-09-09T00:15:55.443Z,2.13
2022-09-09T00:18:30.321Z,2.67
2022-09-09T00:21:03.873Z,2.45
2022-09-09T00:23:37.897Z,1.77
2022-09-09T00:26:14.894Z,2.13
2022-09-09T00:28:48.283Z,1.95
2022-09-09T00:31:22.233Z,2.38
2022-09-09T00:33:53.442Z,1.70
2022-09-09T00:36:26.301Z,1.85
2022-09-09T00:38:59.448Z,2.45
2022-09-09T00:41:42.541Z,1.80
2022-09-09T00:44:27.399Z,1.30
2022-09-09T00:47:06.751Z,1.80
2022-09-09T00:49:47.947Z,1.60
2022-09-09T00:52:28.133Z,1.33
2022-09-09T00:55:07.285Z,1.85
2022-09-09T00:57:36.864Z,2.03
2022-09-09T01:00:21.461Z,2.28
2022-09-09T01:02:59.458Z,1.55
2022-09-09T01:05:37.193Z,1.38
2022-09-09T01:08:13.993Z,1.90
2022-09-09T01:10:50.620Z,1.52
2022-09-09T01:13:25.883Z,1.60
2022-09-09T01:15:59.833Z,1.98
2022-09-09T01:18:32.219Z,1.33
2022-09-09T01:21:09.795Z,1.20
2022-09-09T01:24:02.243Z,1.23
2022-09-09T01:26:35.395Z,1.25
2022-09-09T01:29:03.920Z,1.85
2022-09-09T01:31:41.946Z,1.02
2022-09-09T01:34:14.096Z,1.17
2022-09-09T01:36:46.614Z,1.20
2022-09-09T01:39:15.213Z,1.20
2022-09-09T01:41:44.978Z,1.23
2022-09-09T01:44:14.159Z,0.82
2022-09-09T01:46:42.401Z,1.58
2022-09-09T01:49:11.483Z,1.00
2022-09-09T01:51:41.636Z,1.38
2022-09-09T01:54:10.259Z,1.30
2022-09-09T01:56:48.425Z,1.73
2022-09-09T01:59:29.208Z,1.38
2022-09-09T02:02:10.728Z,1.77
2022-09-09T02:04:42.166Z,1.55
2022-09-09T02:07:23.278Z,1.55
2022-09-09T02:09:59.836Z,1.83
2022-09-09T02:12:31.443Z,1.38
2022-09-09T02:15:06.088Z,1.42
2022-09-09T02:17:40.768Z,1.30
2022-09-09T02:20:12.447Z,1.63
2022-09-09T02:22:45.124Z,1.20
2022-09-09T02:25:16.979Z,1.98
2022-09-09T02:27:49.863Z,1.52
2022-09-09T02:30:18.736Z,1.58
2022-09-09T02:32:48.787Z,1.80
2022-09-09T02:35:19.668Z,2.00
2022-09-09T02:37:48.176Z,2.05
2022-09-09T02:40:18.030Z,2.40
2022-09-09T02:42:49.835Z,1.45
2022-09-09T02:45:20.873Z,2.10
2022-09-09T02:47:57.581Z,1.95
2022-09-09T02:50:28.900Z,2.33
2022-09-09T02:53:11.133Z,2.15
2022-09-09T02:55:47.888Z,1.77
2022-09-09T02:58:19.889Z,2.08
2022-09-09T03:00:49.852Z,2.15
2022-09-09T03:03:19.056Z,1.30
2022-09-09T03:05:47.744Z,0.93
2022-09-09T03:08:16.263Z,1.25
2022-09-09T03:10:44.675Z,1.25
2022-09-09T03:13:13.207Z,1.10
2022-09-09T03:15:43.057Z,1.38
2022-09-09T03:18:11.710Z,1.50
2022-09-09T03:20:39.860Z,0.85
2022-09-09T03:23:11.309Z,1.38
2022-09-09T03:25:41.933Z,1.10
2022-09-09T03:28:10.141Z,1.40
2022-09-09T03:30:38.784Z,1.02
2022-09-09T03:33:08.398Z,1.40
2022-09-09T03:35:37.039Z,1.02
2022-09-09T03:38:05.386Z,1.05
2022-09-09T03:40:33.638Z,0.93
2022-09-09T03:43:01.789Z,1.50
2022-09-09T03:45:30.131Z,1.48
2022-09-09T03:47:58.356Z,1.30
2022-09-09T03:50:28.488Z,1.85
2022-09-09T03:52:56.731Z,2.10
2022-09-09T03:55:24.896Z,1.23
2022-09-09T03:57:53.114Z,1.50
2022-09-09T04:00:21.465Z,3.35
2022-09-09T04:02:50.731Z,1.40
2022-09-09T04:05:18.910Z,1.10
2022-09-09T04:07:48.550Z,1.75
2022-09-09T04:10:17.930Z,1.42
2022-09-09T04:12:49.409Z,1.08
2022-09-09T04:15:19.867Z,1.10
2022-09-09T04:17:48.393Z,1.58
2022-09-09T04:20:16.750Z,1.85
2022-09-09T04:22:45.014Z,1.00
2022-09-09T04:25:14.590Z,1.42
2022-09-09T04:27:44.092Z,2.13
2022-09-09T04:30:13.269Z,1.02
2022-09-09T04:32:41.552Z,1.92
2022-09-09T04:35:10.224Z,1.40
2022-09-09T04:37:38.455Z,1.67
2022-09-09T04:40:10.782Z,1.40
2022-09-09T04:42:44.984Z,1.55
2022-09-09T04:45:14.464Z,1.35
2022-09-09T04:47:43.509Z,1.17
2022-09-09T04:50:12.967Z,1.15
2022-09-09T04:52:42.146Z,1.90
2022-09-09T04:55:11.314Z,1.33
2022-09-09T04:57:41.058Z,1.02
2022-09-09T05:00:11.063Z,1.40
2022-09-09T05:02:40.607Z,1.40
2022-09-09T05:05:09.439Z,0.90
2022-09-09T05:07:38.176Z,0.98
2022-09-09T05:10:06.993Z,1.23
2022-09-09T05:12:35.613Z,1.48
2022-09-09T05:15:05.929Z,1.60
2022-09-09T05:17:34.879Z,1.30
2022-09-09T05:20:09.543Z,1.63
2022-09-09T05:22:38.644Z,1.10
2022-09-09T05:25:07.559Z,1.17
2022-09-09T05:27:36.557Z,2.38
2022-09-09T05:30:06.883Z,1.35
2022-09-09T05:32:35.255Z,1.75
2022-09-09T05:35:03.740Z,1.40
2022-09-09T05:37:33.381Z,1.98
2022-09-09T05:40:02.037Z,1.60
2022-09-09T05:42:32.961Z,1.50
2022-09-09T05:45:01.179Z,0.70
2022-09-09T05:47:30.778Z,0.80
2022-09-09T05:49:59.061Z,1.60
2022-09-09T05:52:28.183Z,1.45
2022-09-09T05:54:57.983Z,0.95
2022-09-09T05:57:26.264Z,1.60
2022-09-09T05:59:54.751Z,1.75
2022-09-09T06:02:23.090Z,1.48
2022-09-09T06:04:52.800Z,1.40
2022-09-09T06:07:21.151Z,0.90
2022-09-09T06:09:49.378Z,1.48
2022-09-09T06:12:17.608Z,1.00
2022-09-09T06:14:46.708Z,1.05
2022-09-09T06:17:14.833Z,1.48
2022-09-09T06:19:43.202Z,1.60
2022-09-09T06:22:13.588Z,1.80
2022-09-09T06:24:41.815Z,1.52
2022-09-09T06:27:10.004Z,1.42
2022-09-09T06:29:38.169Z,0.80
2022-09-09T06:32:09.531Z,1.33
2022-09-09T06:34:37.792Z,0.70
2022-09-09T06:37:07.379Z,1.55
2022-09-09T06:39:36.931Z,2.28
2022-09-09T06:42:05.437Z,1.17
2022-09-09T06:44:35.617Z,0.88
2022-09-09T06:47:04.445Z,1.17
2022-09-09T06:49:32.736Z,1.00
2022-09-09T06:52:01.103Z,1.38
2022-09-09T06:54:29.573Z,1.83
2022-09-09T06:57:11.159Z,2.08
2022-09-09T06:59:49.485Z,1.65
2022-09-09T07:02:17.685Z,1.83
2022-09-09T07:04:46.085Z,0.98
2022-09-09T07:07:16.442Z,1.05
2022-09-09T07:09:46.422Z,1.08
2022-09-09T07:12:16.104Z,1.05
2022-09-09T07:14:44.321Z,0.73
2022-09-09T07:17:12.537Z,1.20
2022-09-09T07:19:40.846Z,1.42
2022-09-09T07:22:09.094Z,1.20
2022-09-09T07:24:38.203Z,0.50
2022-09-09T07:27:06.726Z,0.90
2022-09-09T07:29:36.236Z,0.60
2022-09-09T07:32:05.302Z,0.80
2022-09-09T07:34:34.631Z,0.60
2022-09-09T07:37:02.808Z,0.80
2022-09-09T07:39:30.978Z,0.52
2022-09-09T07:41:59.900Z,1.00
2022-09-09T07:44:29.035Z,0.70
2022-09-09T07:46:58.658Z,0.80
2022-09-09T07:49:32.190Z,0.93
2022-09-09T07:52:01.219Z,0.50
2022-09-09T07:54:29.459Z,0.52
2022-09-09T07:56:57.755Z,0.98
2022-09-09T07:59:26.191Z,0.70
2022-09-09T08:01:55.724Z,0.80
2022-09-09T08:04:29.076Z,0.50
2022-09-09T08:06:59.076Z,0.73
2022-09-09T08:09:34.721Z,0.68
2022-09-09T08:12:03.388Z,1.20
2022-09-09T08:14:31.773Z,1.15
2022-09-09T08:17:00.652Z,0.65
2022-09-09T08:19:31.113Z,0.63
2022-09-09T08:21:59.307Z,0.50
2022-09-09T08:24:27.595Z,1.33
2022-09-09T08:26:55.793Z,0.95
2022-09-09T08:29:24.748Z,0.52
2022-09-09T08:31:55.418Z,0.50
2022-09-09T08:34:24.007Z,0.75
2022-09-09T08:36:54.014Z,0.57
2022-09-09T08:39:24.110Z,0.50
2022-09-09T08:42:12.867Z,0.60
2022-09-09T08:44:56.189Z,0.82
2022-09-09T08:47:33.755Z,0.52
2022-09-09T08:50:25.285Z,0.70
2022-09-09T08:53:03.770Z,0.75
2022-09-09T08:55:42.523Z,0.70
2022-09-09T08:58:15.620Z,0.50
2022-09-09T09:01:01.261Z,0.30
2022-09-09T09:03:37.521Z,0.47
2022-09-09T09:06:16.559Z,0.60
2022-09-09T09:08:52.443Z,0.60
2022-09-09T09:11:20.724Z,0.68
2022-09-09T09:13:54.893Z,0.73
2022-09-09T09:16:33.392Z,0.45
2022-09-09T09:19:02.474Z,1.13
2022-09-09T09:21:39.575Z,0.63
2022-09-09T09:24:21.453Z,0.82
2022-09-09T09:26:51.187Z,0.50
2022-09-09T09:29:22.617Z,0.40
2022-09-09T09:31:55.725Z,0.30
2022-09-09T09:34:25.354Z,0.60
2022-09-09T09:36:57.022Z,0.30
2022-09-09T09:42:23.087Z,0.65
2022-09-09T09:44:52.034Z,0.70
2022-09-09T09:47:22.027Z,0.40
2022-09-09T09:49:57.566Z,0.45
2022-09-09T09:52:27.819Z,0.40
2022-09-09T09:55:02.749Z,0.45
2022-09-09T09:57:34.341Z,0.60
2022-09-09T10:00:07.978Z,0.45
2022-09-09T10:02:41.816Z,0.40
2022-09-09T10:05:16.937Z,0.43
2022-09-09T10:07:47.023Z,0.40
2022-09-09T10:10:27.043Z,0.60
2022-09-09T10:13:07.839Z,0.40
2022-09-09T10:15:44.695Z,0.43
2022-09-09T10:18:29.509Z,0.50
2022-09-09T10:21:06.403Z,0.40
2022-09-09T10:23:48.621Z,0.90
2022-09-09T10:26:34.330Z,0.57
2022-09-09T10:29:22.263Z,0.55
2022-09-09T10:31:58.872Z,0.30
2022-09-09T10:34:57.214Z,0.45
2022-09-09T10:37:43.971Z,0.43
2022-09-09T10:40:31.598Z,0.70
2022-09-09T10:43:12.300Z,0.77
2022-09-09T10:45:50.840Z,0.40
2022-09-09T10:48:40.453Z,0.40
2022-09-09T10:51:23.748Z,0.50
2022-09-09T10:54:04.739Z,0.30
2022-09-09T10:56:33.857Z,0.45
2022-09-09T10:59:09.576Z,0.38
2022-09-09T11:01:45.807Z,0.30
2022-09-09T11:04:19.930Z,0.50
2022-09-09T11:06:53.435Z,0.32
2022-09-09T11:09:26.571Z,0.20
2022-09-09T11:11:56.618Z,0.38
2022-09-09T11:14:35.391Z,0.32
2022-09-09T11:17:12.218Z,0.38
2022-09-09T11:19:42.327Z,0.20
2022-09-09T11:22:20.133Z,0.50
2022-09-09T11:24:51.684Z,0.50
2022-09-09T11:27:26.024Z,0.52
2022-09-09T11:30:44.155Z,0.30
2022-09-09T11:33:51.142Z,0.40
2022-09-09T11:36:36.765Z,0.50
2022-09-09T11:39:21.127Z,0.40
2022-09-09T11:41:49.359Z,0.70
2022-09-09T11:44:30.840Z,0.28
2022-09-09T11:47:00.466Z,0.45
2022-09-09T11:49:32.443Z,0.55
2022-09-09T11:52:00.626Z,0.45
2022-09-09T11:54:33.190Z,0.55
2022-09-09T11:57:01.820Z,0.50
2022-09-09T11:59:32.143Z,0.70
2022-09-09T12:02:04.025Z,0.60
2022-09-09T12:04:37.788Z,0.50
2022-09-09T12:07:25.534Z,0.60
2022-09-09T12:09:57.962Z,0.50
2022-09-09T12:12:35.325Z,0.65
2022-09-09T12:15:22.520Z,0.45
2022-09-09T12:17:54.293Z,0.73
2022-09-09T12:20:25.311Z,0.68
2022-09-09T12:23:22.327Z,0.50
2022-09-09T12:25:59.964Z,0.60
2022-09-09T12:28:38.726Z,0.60
2022-09-09T12:31:14.313Z,0.60
2022-09-09T12:33:46.501Z,0.70
2022-09-09T12:36:17.770Z,0.75
2022-09-09T12:38:46.938Z,0.98
2022-09-09T12:41:22.957Z,3.13
2022-09-09T12:43:52.078Z,2.63
2022-09-09T12:46:37.287Z,0.82
2022-09-09T12:49:07.555Z,0.70
2022-09-09T12:51:36.515Z,0.20
2022-09-09T12:54:06.388Z,0.80
2022-09-09T12:56:35.171Z,0.50
2022-09-09T12:59:03.576Z,0.50
2022-09-09T13:01:34.691Z,0.80
2022-09-09T13:04:03.434Z,1.27
2022-09-09T13:06:35.216Z,1.48
2022-09-09T13:09:05.629Z,2.67
2022-09-09T13:11:40.579Z,2.35
2022-09-09T13:14:09.297Z,2.53
2022-09-09T13:16:42.978Z,2.50
2022-09-09T13:19:16.629Z,2.45
2022-09-09T13:21:46.513Z,2.42
2022-09-09T13:24:29.501Z,2.88
2022-09-09T13:26:58.619Z,2.85
2022-09-09T13:29:27.138Z,2.72
2022-09-09T13:31:56.712Z,3.15
2022-09-09T13:34:33.417Z,3.35
2022-09-09T13:37:06.830Z,2.95
2022-09-09T13:39:37.634Z,2.45
2022-09-09T13:42:08.158Z,2.28
2022-09-09T13:44:40.819Z,2.20
2022-09-09T13:47:21.200Z,3.05
2022-09-09T13:49:49.461Z,2.22
2022-09-09T13:52:20.915Z,1.45
2022-09-09T13:54:52.258Z,2.30
2022-09-09T13:57:22.156Z,1.50
2022-09-09T14:00:06.906Z,2.22
2022-09-09T14:02:35.876Z,2.67
2022-09-09T14:05:04.309Z,2.47
2022-09-09T14:07:34.340Z,3.17
2022-09-09T14:10:02.579Z,3.20
2022-09-09T14:12:30.793Z,3.42
2022-09-09T14:15:00.754Z,3.50
2022-09-09T14:17:32.179Z,4.65
2022-09-09T14:20:01.157Z,2.60
2022-09-09T14:22:29.568Z,2.58
2022-09-09T14:24:59.666Z,2.67
2022-09-09T14:27:28.541Z,1.73
2022-09-09T14:29:56.752Z,1.55
2022-09-09T14:32:24.985Z,0.82
2022-09-09T14:34:53.175Z,1.65
2022-09-09T14:37:21.673Z,1.73
2022-09-09T14:39:51.506Z,2.20
2022-09-09T14:42:21.202Z,2.17
2022-09-09T14:44:49.889Z,2.88
2022-09-09T14:47:18.241Z,2.50
2022-09-09T14:49:47.312Z,2.60
2022-09-09T14:52:15.827Z,2.75
2022-09-09T14:54:44.050Z,2.20
2022-09-09T14:57:12.351Z,2.17
2022-09-09T14:59:41.904Z,2.75
2022-09-09T15:02:11.418Z,2.47
2022-09-09T15:04:39.713Z,1.98
2022-09-09T15:07:07.914Z,1.20
2022-09-09T15:09:38.194Z,1.50
2022-09-09T15:12:06.703Z,1.13
2022-09-09T15:14:36.234Z,1.05
2022-09-09T15:17:06.648Z,0.60
2022-09-09T15:19:35.194Z,0.88
2022-09-09T15:22:03.407Z,0.50
2022-09-09T15:24:31.673Z,0.80
2022-09-09T15:27:00.039Z,1.05
2022-09-09T15:29:29.803Z,1.00
2022-09-09T15:31:58.042Z,0.70
2022-09-09T15:34:27.603Z,1.02
2022-09-09T15:36:56.732Z,1.48
2022-09-09T15:39:25.018Z,1.00
2022-09-09T15:41:53.328Z,0.77
2022-09-09T15:44:21.622Z,0.90
2022-09-09T15:46:52.410Z,1.50
2022-09-09T15:49:26.011Z,1.10
2022-09-09T15:51:58.342Z,1.15
2022-09-09T15:54:28.417Z,1.35
2022-09-09T15:56:58.203Z,1.30
2022-09-09T15:59:28.818Z,1.75
2022-09-09T16:01:57.915Z,2.47
2022-09-09T16:04:27.119Z,1.48
2022-09-09T16:07:00.115Z,1.77
2022-09-09T16:09:28.874Z,2.15
2022-09-09T16:11:59.894Z,1.88
2022-09-09T16:14:28.367Z,2.65
2022-09-09T16:16:59.605Z,3.20
2022-09-09T16:19:27.914Z,2.75
2022-09-09T16:21:59.121Z,0.95
2022-09-09T16:24:27.666Z,1.15
2022-09-09T16:26:56.666Z,1.10
2022-09-09T16:29:28.300Z,1.50
2022-09-09T16:32:02.723Z,2.03
2022-09-09T16:34:32.120Z,1.98
2022-09-09T16:37:03.018Z,1.90
2022-09-09T16:39:32.448Z,1.95
2022-09-09T16:42:00.887Z,2.13
2022-09-09T16:44:29.094Z,2.30
2022-09-09T16:47:00.680Z,1.95
2022-09-09T16:49:29.717Z,2.83
2022-09-09T16:52:01.367Z,2.90
2022-09-09T16:54:30.281Z,2.80
2022-09-09T16:56:59.532Z,3.88
2022-09-09T16:59:28.401Z,3.55
2022-09-09T17:01:56.742Z,3.90
2022-09-09T17:04:29.853Z,3.72
2022-09-09T17:07:01.316Z,4.40
2022-09-09T17:09:32.464Z,5.10
2022-09-09T17:12:00.966Z,5.07
2022-09-09T17:14:29.354Z,4.60
2022-09-09T17:17:13.730Z,4.55
2022-09-09T17:19:46.763Z,5.63
2022-09-09T17:22:17.671Z,5.00
2022-09-09T17:24:48.469Z,5.35
2022-09-09T17:27:16.657Z,4.82
2022-09-09T17:29:44.878Z,5.15
2022-09-09T17:32:13.218Z,4.82
2022-09-09T17:34:41.519Z,4.95
2022-09-09T17:37:09.743Z,5.45
2022-09-09T17:39:37.960Z,5.53
2022-09-09T17:42:08.569Z,4.88
2022-09-09T17:44:36.747Z,4.18
2022-09-09T17:47:07.225Z,2.90
2022-09-09T17:49:36.502Z,2.90
2022-09-09T17:52:05.011Z,2.78
2022-09-09T17:54:34.892Z,3.40
2022-09-09T17:57:03.103Z,3.80
2022-09-09T17:59:32.704Z,3.38
2022-09-09T18:02:01.290Z,3.50
2022-09-09T18:04:29.570Z,4.22
2022-09-09T18:06:59.280Z,5.22
2022-09-09T18:09:29.250Z,4.80
2022-09-09T18:12:00.155Z,5.18
2022-09-09T18:14:31.296Z,5.15
2022-09-09T18:17:02.154Z,6.35
2022-09-09T18:19:32.907Z,4.80
2022-09-09T18:22:02.896Z,4.57
2022-09-09T18:24:31.905Z,4.82
2022-09-09T18:27:00.928Z,3.78
2022-09-09T18:29:29.936Z,4.28
2022-09-09T18:31:58.381Z,4.78
2022-09-09T18:34:30.064Z,4.13
2022-09-09T18:36:58.806Z,4.28
2022-09-09T18:39:30.043Z,5.25
2022-09-09T18:42:00.563Z,4.13
2022-09-09T18:44:31.357Z,5.18
2022-09-09T18:47:00.287Z,4.32
2022-09-09T18:49:30.050Z,5.85
2022-09-09T18:51:59.283Z,4.43
2022-09-09T18:54:31.309Z,7.05
2022-09-09T18:57:00.906Z,6.85
2022-09-09T18:59:30.153Z,7.03
2022-09-09T19:01:58.774Z,4.22
2022-09-09T19:04:27.630Z,4.32
2022-09-09T19:06:58.797Z,3.17
2022-09-09T19:09:29.470Z,3.60
2022-09-09T19:11:58.225Z,2.88
2022-09-09T19:14:26.832Z,3.30
2022-09-09T19:16:55.486Z,2.80
2022-09-09T19:19:25.398Z,2.17
2022-09-09T19:21:55.271Z,2.78
2022-09-09T19:24:27.356Z,2.22
2022-09-09T19:26:58.061Z,2.00
2022-09-09T19:29:27.782Z,1.88
2022-09-09T19:34:46.056Z,1.85
2022-09-09T19:37:18.174Z,1.83
2022-09-09T19:39:49.507Z,2.15
2022-09-09T19:42:18.080Z,1.85
2022-09-09T19:44:46.509Z,1.83
2022-09-09T19:47:15.187Z,2.30
2022-09-09T19:49:46.992Z,1.85
2022-09-09T19:52:16.929Z,2.13
2022-09-09T19:54:45.232Z,1.55
2022-09-09T19:57:14.792Z,1.85
2022-09-09T19:59:43.032Z,2.20
2022-09-09T20:02:15.584Z,1.63
2022-09-09T20:04:44.587Z,1.48
2022-09-09T20:07:12.955Z,2.70
2022-09-09T20:09:41.248Z,1.48
2022-09-09T20:12:10.478Z,1.65
2022-09-09T20:14:40.404Z,1.42
2022-09-09T20:17:10.375Z,1.55
2022-09-09T20:19:39.744Z,2.17
2022-09-09T20:22:08.351Z,1.65
2022-09-09T20:24:37.729Z,1.48
2022-09-09T20:27:07.513Z,1.20
2022-09-09T20:29:36.227Z,1.52
2022-09-09T20:32:06.913Z,1.20
2022-09-09T20:34:36.130Z,1.13
2022-09-09T20:37:04.887Z,1.35
2022-09-09T20:39:33.199Z,1.00
2022-09-09T20:42:01.749Z,0.93
2022-09-09T20:44:30.016Z,1.30
2022-09-09T20:47:02.856Z,1.70
2022-09-09T20:49:35.123Z,1.90
2022-09-09T20:52:03.831Z,2.13
2022-09-09T20:54:32.008Z,2.78
2022-09-09T20:57:00.494Z,2.35
2022-09-09T20:59:30.765Z,2.60
2022-09-09T21:02:00.941Z,2.70
2022-09-09T21:04:32.738Z,2.80
2022-09-09T21:07:02.505Z,2.03
2022-09-09T21:09:31.102Z,3.58
2022-09-09T21:11:59.357Z,1.63
2022-09-09T21:14:27.976Z,2.22
2022-09-09T21:16:56.246Z,1.33
2022-09-09T21:19:25.103Z,1.80
2022-09-09T21:21:54.655Z,3.08
2022-09-09T21:24:23.026Z,1.35
2022-09-09T21:26:51.349Z,1.67
2022-09-09T21:29:19.617Z,1.48
2022-09-09T21:31:47.836Z,1.15
2022-09-09T21:34:18.444Z,1.50
2022-09-09T21:36:46.625Z,2.30
2022-09-09T21:39:16.284Z,2.17
2022-09-09T21:41:47.655Z,2.03
2022-09-09T21:44:15.902Z,1.90
2022-09-09T21:46:44.394Z,2.05
2022-09-09T21:49:12.700Z,1.60
2022-09-09T21:51:40.884Z,3.55
2022-09-09T21:54:09.486Z,3.22
2022-09-09T21:56:39.591Z,1.83
2022-09-09T21:59:08.128Z,2.55
2022-09-09T22:01:36.417Z,2.65
2022-09-09T22:04:05.147Z,2.13
2022-09-09T22:06:33.894Z,2.58
2022-09-09T22:09:03.515Z,2.72
2022-09-09T22:11:31.969Z,2.83
2022-09-09T22:14:03.084Z,3.13
2022-09-09T22:16:31.736Z,3.83
2022-09-09T22:19:02.480Z,2.80
2022-09-09T22:21:32.957Z,3.88
2022-09-09T22:24:03.745Z,4.03
2022-09-09T22:26:34.553Z,4.10
2022-09-09T22:29:05.514Z,3.83
2022-09-09T22:31:34.856Z,4.32
2022-09-09T22:34:03.445Z,3.88
2022-09-09T22:36:32.831Z,4.28
2022-09-09T22:39:01.205Z,4.15
2022-09-09T22:41:30.572Z,3.92
2022-09-09T22:43:58.937Z,4.15
2022-09-09T22:46:28.461Z,3.85
2022-09-09T22:48:56.881Z,3.55
2022-09-09T22:51:25.130Z,3.75
2022-09-09T22:53:53.435Z,4.38
2022-09-09T22:56:21.715Z,4.35
2022-09-09T22:58:55.868Z,4.03
2022-09-09T23:01:25.505Z,3.65
2022-09-09T23:03:59.249Z,4.65
2022-09-09T23:06:28.783Z,5.20
2022-09-09T23:08:59.588Z,4.30
2022-09-09T23:11:31.647Z,5.43
2022-09-09T23:14:02.215Z,4.90
2022-09-09T23:16:33.866Z,5.15
2022-09-09T23:19:03.734Z,4.88
2022-09-09T23:21:32.943Z,5.10
2022-09-09T23:24:01.784Z,4.90
2022-09-09T23:26:30.206Z,5.40
2022-09-09T23:29:00.182Z,4.82
2022-09-09T23:31:30.702Z,5.05
2022-09-09T23:34:01.017Z,4.97
2022-09-09T23:36:31.467Z,5.22
2022-09-09T23:39:00.427Z,6.32
2022-09-09T23:41:28.736Z,5.75
2022-09-09T23:43:57.089Z,6.30
2022-09-09T23:46:28.670Z,6.30
2022-09-09T23:48:58.515Z,5.72
2022-09-09T23:51:29.583Z,5.93
2022-09-09T23:54:01.940Z,5.70
2022-09-09T23:56:32.417Z,6.05
2022-09-09T23:59:01.645Z,6.00
